createdAt,value
2022-10-19T00:13:16.737Z,11.00
2022-10-19T00:27:16.701Z,10.40
2022-10-19T00:41:16.707Z,10.10
2022-10-19T00:55:16.702Z,9.50
2022-10-19T01:09:16.718Z,9.50
2022-10-19T01:23:16.852Z,9.00
2022-10-19T01:37:16.793Z,8.70
2022-10-19T01:51:16.807Z,8.60
2022-10-19T02:05:16.817Z,8.60
2022-10-19T02:19:16.962Z,8.10
2022-10-19T02:33:16.843Z,8.60
2022-10-19T02:47:16.837Z,8.50
2022-10-19T03:01:16.844Z,8.20
2022-10-19T03:15:16.834Z,8.30
2022-10-19T03:29:16.859Z,8.10
2022-10-19T03:43:16.840Z,8.20
2022-10-19T03:57:16.863Z,8.00
2022-10-19T04:11:16.844Z,7.90
2022-10-19T04:25:16.871Z,7.60
2022-10-19T04:39:16.860Z,7.60
2022-10-19T04:53:16.923Z,7.40
2022-10-19T05:07:16.961Z,7.30
2022-10-19T05:21:16.909Z,7.70
2022-10-19T05:36:16.904Z,6.80
2022-10-19T05:51:16.963Z,6.45
2022-10-19T06:06:16.976Z,6.50
2022-10-19T06:21:16.987Z,6.60
2022-10-19T06:36:18.005Z,6.60
2022-10-19T06:51:16.992Z,6.20
2022-10-19T07:06:17.027Z,6.40
2022-10-19T07:21:17.038Z,6.70
2022-10-19T07:36:17.129Z,6.10
2022-10-19T07:51:17.151Z,6.50
2022-10-19T08:06:17.145Z,6.90
2022-10-19T08:21:17.185Z,7.60
2022-10-19T08:36:17.198Z,8.00
2022-10-19T08:51:17.222Z,7.80
2022-10-19T09:06:17.227Z,7.70
2022-10-19T09:21:17.224Z,7.60
2022-10-19T09:36:22.175Z,7.25
2022-10-19T09:51:17.216Z,6.90
2022-10-19T10:06:17.245Z,6.20
2022-10-19T10:21:18.047Z,6.50
2022-10-19T10:36:17.278Z,6.50
2022-10-19T10:51:17.274Z,6.70
2022-10-19T10:53:50.428Z,6.60
2022-10-19T11:07:50.451Z,6.70
2022-10-19T11:23:50.762Z,8.00
2022-10-19T11:38:50.773Z,7.80
2022-10-19T11:53:50.878Z,8.30
2022-10-19T12:08:52.415Z,7.60
2022-10-19T12:23:51.277Z,7.10
2022-10-19T12:38:59.669Z,7.50
2022-10-19T12:53:51.306Z,6.90
2022-10-19T13:08:51.355Z,6.70
2022-10-19T13:23:51.306Z,6.70
2022-10-19T13:38:51.322Z,6.20
2022-10-19T13:53:51.725Z,6.70
2022-10-19T14:08:51.842Z,6.20
2022-10-19T14:23:51.787Z,5.90
2022-10-19T14:38:51.786Z,6.10
2022-10-19T14:53:51.786Z,6.10
2022-10-19T15:08:51.795Z,6.50
2022-10-19T15:23:51.839Z,7.30
2022-10-19T15:38:51.850Z,6.80
2022-10-19T15:53:51.873Z,6.70
2022-10-19T16:08:51.902Z,7.50
2022-10-19T16:23:51.881Z,8.10
2022-10-19T16:38:51.884Z,9.40
2022-10-19T16:53:51.872Z,9.10
2022-10-19T17:07:51.907Z,8.80
2022-10-19T17:21:51.945Z,9.40
2022-10-19T17:35:51.961Z,8.80
2022-10-19T17:49:51.990Z,8.90
2022-10-19T18:03:52.001Z,8.40
2022-10-19T18:17:52.012Z,8.80
2022-10-19T18:31:52.036Z,34.00
2022-10-19T18:45:52.002Z,23.50
2022-10-19T18:59:52.021Z,22.00
2022-10-19T19:13:52.158Z,18.80
2022-10-19T19:27:52.135Z,17.30
2022-10-19T19:41:52.118Z,16.40
2022-10-19T19:55:52.150Z,15.30
2022-10-19T20:09:52.339Z,13.30
2022-10-19T20:23:52.312Z,13.10
2022-10-19T20:37:52.352Z,12.00
2022-10-19T20:51:52.477Z,11.00
2022-10-19T21:05:52.448Z,10.70
2022-10-19T21:19:52.448Z,10.30
2022-10-19T21:33:52.466Z,9.30
2022-10-19T21:47:52.479Z,9.30
2022-10-19T22:01:52.556Z,8.70
2022-10-19T22:15:52.473Z,8.50
2022-10-19T22:29:52.468Z,7.80
2022-10-19T22:43:52.488Z,7.80
2022-10-19T22:57:52.482Z,7.20
2022-10-19T23:11:52.487Z,7.20
2022-10-19T23:25:52.489Z,6.70
2022-10-19T23:39:52.487Z,6.60
2022-10-19T23:53:52.491Z,5.70
